Time;durP1;ratioP1;P1;durP2;ratioP2;P2;SDS_P1;SDS_P2;PMS_P1;PMS_P2;Temp;Humidity;BMP_temperature;BMP_pressure;BME280_temperature;BME280_humidity;BME280_pressure;Samples;Min_cycle;Max_cycle;Signal;HPM_P1;HPM_P2
2022/02/08 00:00:40;;;;;;;29.27;9.03;;;5.70;99.90;;;;;;6242462;22;20019;-83
2022/02/08 00:03:08;;;;;;;23.00;9.20;;;5.70;99.90;;;;;;6216892;22;20456;-82
2022/02/08 00:05:36;;;;;;;25.77;9.40;;;5.70;99.90;;;;;;6216718;22;20542;-82
2022/02/08 00:08:02;;;;;;;27.37;10.57;;;5.70;99.90;;;;;;6241639;22;20043;-82
2022/02/08 00:10:29;;;;;;;29.13;9.80;;;5.70;99.90;;;;;;6217012;22;20026;-82
2022/02/08 00:12:57;;;;;;;29.33;9.57;;;5.70;99.90;;;;;;6216010;22;20530;-82
2022/02/08 00:15:24;;;;;;;27.80;10.40;;;5.70;99.90;;;;;;6191581;22;20074;-82
2022/02/08 00:17:50;;;;;;;27.67;9.93;;;5.80;99.90;;;;;;6191137;22;20016;-82
2022/02/08 00:20:16;;;;;;;28.03;10.07;;;5.80;99.90;;;;;;6241889;22;20050;-82
2022/02/08 00:22:42;;;;;;;28.47;10.23;;;5.80;99.90;;;;;;6193458;22;20019;-81
2022/02/08 00:25:08;;;;;;;29.27;9.83;;;5.80;99.90;;;;;;6192075;22;20260;-81
2022/02/08 00:27:34;;;;;;;28.73;10.77;;;5.80;99.90;;;;;;6218742;22;20050;-81
2022/02/08 00:30:00;;;;;;;31.70;10.67;;;5.80;99.90;;;;;;6217930;22;20468;-81
2022/02/08 00:32:26;;;;;;;28.27;10.33;;;5.80;99.90;;;;;;6243351;22;20026;-80
2022/02/08 00:34:53;;;;;;;37.67;12.20;;;5.80;99.90;;;;;;6193081;22;20062;-81
2022/02/08 00:37:19;;;;;;;28.40;11.27;;;5.80;99.90;;;;;;6193845;22;20016;-81
2022/02/08 00:39:45;;;;;;;29.83;10.23;;;5.80;99.90;;;;;;6192819;22;20020;-81
2022/02/08 00:42:12;;;;;;;24.23;10.90;;;5.80;99.90;;;;;;6218289;22;20022;-80
2022/02/08 00:44:54;;;;;;;34.13;11.30;;;5.80;99.90;;;;;;6193021;22;20023;-81
2022/02/08 00:47:28;;;;;;;27.27;10.53;;;5.90;99.90;;;;;;6222105;22;20506;-80
2022/02/08 00:49:56;;;;;;;34.10;11.63;;;5.80;99.90;;;;;;6195111;22;20016;-81
2022/02/08 00:52:22;;;;;;;33.43;11.90;;;5.90;99.90;;;;;;6218829;22;20034;-81
2022/02/08 00:54:52;;;;;;;30.83;12.40;;;5.90;99.90;;;;;;6192883;22;20016;-81
2022/02/08 00:57:18;;;;;;;32.25;11.48;;;5.90;99.90;;;;;;6218637;22;20166;-79
2022/02/08 00:59:44;;;;;;;28.60;12.17;;;5.90;99.90;;;;;;6243222;22;20461;-80
2022/02/08 01:02:10;;;;;;;37.40;12.90;;;6.00;99.90;;;;;;6216700;22;20019;-80
2022/02/08 01:04:36;;;;;;;45.60;14.27;;;6.00;99.90;;;;;;6193202;22;20016;-81
2022/02/08 01:07:05;;;;;;;37.53;14.23;;;6.00;99.90;;;;;;6218015;22;20085;-80
2022/02/08 01:09:46;;;;;;;39.93;13.63;;;6.00;99.90;;;;;;6219181;22;20026;-80
2022/02/08 01:12:13;;;;;;;38.27;13.60;;;6.00;99.90;;;;;;6243082;22;20510;-79
2022/02/08 01:14:41;;;;;;;41.97;15.33;;;6.10;99.90;;;;;;6191642;22;20457;-79
2022/02/08 01:17:09;;;;;;;41.50;16.70;;;6.10;99.90;;;;;;6217066;22;20027;-78
2022/02/08 01:19:37;;;;;;;41.45;17.40;;;6.20;99.90;;;;;;6191368;22;20016;-79
2022/02/08 01:22:03;;;;;;;42.22;18.73;;;6.20;99.90;;;;;;6241683;22;20019;-79
2022/02/08 01:24:29;;;;;;;48.13;17.60;;;6.20;99.90;;;;;;6166631;22;20019;-78
2022/02/08 01:27:05;;;;;;;44.93;19.90;;;6.20;99.90;;;;;;6167343;22;20015;-79
2022/02/08 01:29:40;;;;;;;38.17;18.37;;;6.30;99.90;;;;;;6171728;22;20026;-78
2022/02/08 01:33:14;;;;;;;51.33;19.90;;;6.30;99.90;;;;;;6216869;22;20111;-78
2022/02/08 01:40:26;;;;;;;46.33;22.35;;;6.40;99.90;;;;;;6213716;23;20098;-77
2022/02/08 01:45:41;;;;;;;43.00;20.77;;;6.50;99.90;;;;;;6210630;23;20031;-78
2022/02/08 01:48:14;;;;;;;38.22;21.33;;;6.50;99.90;;;;;;6216406;23;20559;-78
2022/02/08 01:50:41;;;;;;;43.42;20.98;;;6.50;99.90;;;;;;6213997;23;20516;-78
2022/02/08 01:53:07;;;;;;;40.00;22.98;;;6.60;99.90;;;;;;6211955;23;20020;-77
2022/02/08 01:55:34;;;;;;;40.55;21.40;;;6.60;99.90;;;;;;6236946;23;20070;-77
2022/02/08 01:58:02;;;;;;;39.95;20.60;;;6.70;99.90;;;;;;6236514;23;20016;-76
2022/02/08 02:00:38;;;;;;;36.92;19.70;;;6.70;99.90;;;;;;6187656;23;20020;-78
2022/02/08 02:03:04;;;;;;;36.83;18.23;;;6.70;99.90;;;;;;6211398;23;20027;-77
2022/02/08 02:05:30;;;;;;;34.15;19.77;;;6.70;99.90;;;;;;6238780;23;20118;-77
2022/02/08 02:07:58;;;;;;;43.55;21.10;;;6.80;99.90;;;;;;6211234;23;20020;-77
2022/02/08 02:10:25;;;;;;;33.95;21.15;;;6.80;99.90;;;;;;6213084;23;20022;-78
2022/02/08 02:13:01;;;;;;;33.05;18.75;;;6.90;99.90;;;;;;6185563;23;20024;-77
2022/02/08 02:15:28;;;;;;;33.08;20.33;;;6.90;99.90;;;;;;6211358;23;20020;-78
2022/02/08 02:17:54;;;;;;;33.78;19.77;;;6.90;99.90;;;;;;6236201;23;20464;-78
2022/02/08 02:20:21;;;;;;;37.80;22.23;;;6.90;99.90;;;;;;6237797;23;20344;-78
2022/02/08 02:22:47;;;;;;;43.22;23.63;;;7.00;99.90;;;;;;6212076;23;20412;-78
2022/02/08 02:25:40;;;;;;;44.40;25.20;;;7.00;99.90;;;;;;6210910;23;20024;-78
2022/02/08 02:28:06;;;;;;;43.75;24.77;;;7.00;99.90;;;;;;6206873;23;20317;-78
2022/02/08 02:30:34;;;;;;;44.38;25.60;;;7.10;99.90;;;;;;6212423;23;20031;-78
2022/02/08 02:33:01;;;;;;;40.38;24.00;;;7.20;99.90;;;;;;6236203;23;20027;-78
2022/02/08 02:35:29;;;;;;;45.00;25.33;;;7.10;99.90;;;;;;6212313;23;20475;-79
2022/02/08 02:37:57;;;;;;;48.72;26.67;;;7.10;99.90;;;;;;6187119;23;20034;-79
2022/02/08 02:40:24;;;;;;;47.95;26.63;;;7.20;99.90;;;;;;6212557;23;20059;-78
2022/02/08 02:42:50;;;;;;;52.90;28.17;;;7.20;99.90;;;;;;6187019;23;20023;-80
2022/02/08 02:45:19;;;;;;;54.88;26.35;;;7.20;99.90;;;;;;6186871;23;20016;-86
2022/02/08 02:47:45;;;;;;;50.70;27.17;;;7.30;99.90;;;;;;6188008;23;20347;-87
2022/02/08 02:50:11;;;;;;;51.25;25.88;;;7.40;99.90;;;;;;6188946;23;20062;-87
2022/02/08 02:52:37;;;;;;;52.78;29.85;;;7.40;99.90;;;;;;6189862;23;20016;-88
2022/02/08 02:55:04;;;;;;;49.45;27.20;;;7.40;99.90;;;;;;6214486;23;20027;-87
2022/02/08 02:57:30;;;;;;;47.13;26.50;;;7.40;99.90;;;;;;6189398;23;20048;-87
2022/02/08 03:00:06;;;;;;;44.70;24.98;;;7.40;99.90;;;;;;6187732;23;20020;-78
2022/02/08 03:02:40;;;;;;;43.63;24.90;;;7.50;99.90;;;;;;6215647;23;20077;-78
2022/02/08 03:19:12;;;;;;;42.47;22.83;;;7.70;99.90;;;;;;6166325;23;20028;-79
2022/02/08 03:21:38;;;;;;;48.80;23.25;;;7.70;99.90;;;;;;6213786;23;20054;-78
2022/02/08 03:24:04;;;;;;;44.83;23.70;;;7.80;99.90;;;;;;6212085;23;20102;-79
2022/02/08 03:26:30;;;;;;;42.78;23.50;;;7.80;99.90;;;;;;6188617;23;20016;-78
2022/02/08 03:28:55;;;;;;;42.80;22.63;;;7.80;99.90;;;;;;6188420;23;20030;-79
2022/02/08 03:31:21;;;;;;;42.17;22.75;;;7.90;99.90;;;;;;6188412;23;20028;-79
2022/02/08 03:33:47;;;;;;;46.10;22.38;;;7.90;99.90;;;;;;6247550;22;20709;-78
2022/02/08 03:36:13;;;;;;;44.22;22.60;;;7.90;99.90;;;;;;6193007;22;20020;-79
2022/02/08 03:38:43;;;;;;;39.75;22.20;;;8.00;99.90;;;;;;6193688;22;20595;-78
2022/02/08 03:41:10;;;;;;;37.33;21.63;;;8.00;99.90;;;;;;6170008;22;20058;-80
2022/02/08 03:43:39;;;;;;;45.65;22.70;;;7.90;99.90;;;;;;6192803;22;20024;-79
2022/02/08 03:46:11;;;;;;;48.67;22.30;;;8.00;99.90;;;;;;6218128;22;20062;-79
2022/02/08 03:48:39;;;;;;;37.95;20.77;;;8.00;99.90;;;;;;6243736;22;20016;-79
2022/02/08 03:51:18;;;;;;;42.42;22.00;;;8.00;99.90;;;;;;6193049;22;20262;-79
2022/02/08 03:53:45;;;;;;;42.30;19.70;;;8.10;99.90;;;;;;6244105;22;20351;-79
2022/02/08 03:56:13;;;;;;;41.25;19.85;;;8.10;99.90;;;;;;6217311;22;20019;-79
2022/02/08 03:58:39;;;;;;;37.58;20.45;;;8.10;99.90;;;;;;6192921;22;20015;-79
2022/02/08 04:06:48;;;;;;;39.83;20.05;;;8.20;99.90;;;;;;6158747;22;20030;-80
2022/02/08 04:09:13;;;;;;;39.70;19.55;;;8.20;99.90;;;;;;6192569;22;20016;-80
2022/02/08 04:11:52;;;;;;;39.13;19.00;;;8.20;99.90;;;;;;6192640;22;20011;-80
2022/02/08 04:17:03;;;;;;;31.50;18.65;;;8.30;99.90;;;;;;6197991;22;20023;-79
2022/02/08 04:36:25;;;;;;;34.03;16.08;;;8.40;99.90;;;;;;6215984;23;20089;-86
2022/02/08 04:49:14;;;;;;;36.00;14.15;;;8.50;99.90;;;;;;6214761;23;20165;-81
2022/02/08 04:51:51;;;;;;;35.05;13.18;;;8.50;99.90;;;;;;6188514;23;20113;-80
2022/02/08 04:54:24;;;;;;;26.10;12.88;;;8.50;99.90;;;;;;6189753;23;20503;-79
2022/02/08 04:59:41;;;;;;;33.55;11.80;;;8.60;99.90;;;;;;6211455;23;20020;-81
2022/02/08 05:02:30;;;;;;;30.45;12.35;;;8.60;99.90;;;;;;6190798;23;20614;-80
2022/02/08 05:27:30;;;;;;;26.42;9.60;;;8.60;99.90;;;;;;6217936;23;20020;-80
2022/02/08 05:48:45;;;;;;;25.67;8.50;;;8.50;99.90;;;;;;6193501;22;20097;-81
2022/02/08 05:51:21;;;;;;;21.00;7.47;;;8.50;99.90;;;;;;6193095;22;20029;-81
2022/02/08 05:53:47;;;;;;;20.58;7.72;;;8.60;99.90;;;;;;6220601;22;20031;-81
2022/02/08 05:56:16;;;;;;;21.58;7.65;;;8.50;99.90;;;;;;6217835;22;20020;-81
2022/02/08 05:58:46;;;;;;;21.05;7.30;;;8.60;99.90;;;;;;6193459;22;20097;-81
2022/02/08 06:01:12;;;;;;;27.20;8.32;;;8.60;99.90;;;;;;6192166;22;20016;-81
2022/02/08 06:03:38;;;;;;;23.77;6.85;;;8.50;99.90;;;;;;6193114;22;20150;-81
2022/02/08 06:06:04;;;;;;;22.33;7.07;;;8.50;99.90;;;;;;6242575;22;20067;-81
2022/02/08 06:08:30;;;;;;;23.15;6.68;;;8.50;99.90;;;;;;6242368;22;20018;-81
2022/02/08 06:11:02;;;;;;;21.50;6.32;;;8.50;99.90;;;;;;6216084;22;20447;-81
2022/02/08 06:13:31;;;;;;;19.58;5.95;;;8.60;99.90;;;;;;6217250;22;20023;-82
2022/02/08 06:16:02;;;;;;;19.13;6.35;;;8.50;99.90;;;;;;6192203;22;20321;-81
2022/02/08 06:18:30;;;;;;;19.48;5.70;;;8.60;99.90;;;;;;6215071;22;20018;-80
2022/02/08 06:21:00;;;;;;;18.85;5.63;;;8.60;99.90;;;;;;6190881;22;20059;-81
2022/02/08 06:23:26;;;;;;;19.30;5.85;;;8.60;99.90;;;;;;6216602;22;20031;-80
2022/02/08 06:25:51;;;;;;;24.92;6.18;;;8.60;99.90;;;;;;6245085;22;20011;-81
2022/02/08 06:28:18;;;;;;;23.25;5.18;;;8.60;99.90;;;;;;6193769;22;20258;-79
2022/02/08 06:30:46;;;;;;;20.40;6.15;;;8.60;99.90;;;;;;6170330;22;20016;-80
2022/02/08 06:33:13;;;;;;;20.98;5.40;;;8.60;99.90;;;;;;6216529;22;20077;-80
2022/02/08 06:35:39;;;;;;;22.77;5.80;;;8.60;99.90;;;;;;6191767;22;20019;-80
2022/02/08 06:38:09;;;;;;;22.73;5.40;;;8.60;99.90;;;;;;6159628;22;20030;-82
2022/02/08 06:40:39;;;;;;;21.02;6.03;;;8.70;99.90;;;;;;6217831;22;20094;-80
2022/02/08 06:43:05;;;;;;;19.67;5.15;;;8.70;99.90;;;;;;6192982;22;20015;-80
2022/02/08 06:45:35;;;;;;;23.50;4.90;;;8.70;99.90;;;;;;6193576;22;20081;-80
2022/02/08 06:48:03;;;;;;;22.30;5.00;;;8.70;99.90;;;;;;6216458;22;20027;-80
2022/02/08 06:50:29;;;;;;;18.13;4.72;;;8.70;99.90;;;;;;6192118;22;20445;-77
2022/02/08 06:52:55;;;;;;;21.08;4.60;;;8.70;99.90;;;;;;6243805;22;20445;-80
2022/02/08 06:55:24;;;;;;;22.80;5.75;;;8.70;99.90;;;;;;6241450;22;20027;-80
2022/02/08 06:58:02;;;;;;;18.92;4.88;;;8.70;99.90;;;;;;6240865;22;20077;-80
2022/02/08 07:00:40;;;;;;;21.25;5.50;;;8.70;99.90;;;;;;6195838;22;20026;-81
2022/02/08 07:03:09;;;;;;;20.88;5.05;;;8.70;99.90;;;;;;6218306;22;20019;-82
2022/02/08 07:05:36;;;;;;;16.23;4.75;;;8.70;99.90;;;;;;6215616;22;20388;-81
2022/02/08 07:08:05;;;;;;;16.13;4.60;;;8.70;99.90;;;;;;6188837;22;20077;-82
2022/02/08 07:10:33;;;;;;;18.95;5.60;;;8.70;99.90;;;;;;6192608;22;20024;-82
2022/02/08 07:12:59;;;;;;;18.10;4.43;;;8.70;99.90;;;;;;6242396;22;20440;-81
2022/02/08 07:15:25;;;;;;;16.60;4.35;;;8.70;99.90;;;;;;6215320;22;20066;-81
2022/02/08 07:17:51;;;;;;;14.35;4.80;;;8.70;99.90;;;;;;6190899;22;20028;-82
2022/02/08 07:20:17;;;;;;;18.77;4.05;;;8.80;99.90;;;;;;6191077;22;20026;-82
2022/02/08 07:22:43;;;;;;;14.98;4.50;;;8.80;99.90;;;;;;6242740;22;20421;-82
2022/02/08 07:25:10;;;;;;;18.00;4.00;;;8.80;99.90;;;;;;6243008;22;20070;-81
2022/02/08 07:27:36;;;;;;;18.10;4.20;;;8.80;99.90;;;;;;6217815;22;20022;-81
2022/02/08 07:30:09;;;;;;;19.13;4.38;;;8.80;99.90;;;;;;6243733;22;20012;-80
2022/02/08 07:32:39;;;;;;;20.33;4.50;;;8.80;99.90;;;;;;6220453;22;20023;-82
2022/02/08 07:35:29;;;;;;;16.35;4.05;;;8.80;99.90;;;;;;6216740;22;20051;-82
2022/02/08 07:38:11;;;;;;;17.08;4.38;;;8.80;99.90;;;;;;6215951;22;20051;-81
2022/02/08 07:41:35;;;;;;;12.95;3.60;;;8.80;99.90;;;;;;6242345;22;20077;-82
2022/02/08 07:43:25;;;;;;;15.85;3.38;;;8.90;99.90;;;;;;6241459;22;20024;-81
2022/02/08 07:45:51;;;;;;;14.50;3.10;;;8.70;99.90;;;;;;6216819;22;20020;-81
2022/02/08 07:48:17;;;;;;;17.83;3.78;;;8.90;99.90;;;;;;6240975;22;20061;-80
2022/02/08 07:50:44;;;;;;;15.57;3.85;;;8.90;99.90;;;;;;6217094;22;20024;-82
2022/02/08 07:53:13;;;;;;;15.38;3.40;;;8.90;99.90;;;;;;6243081;22;20015;-81
2022/02/08 07:55:55;;;;;;;17.02;3.83;;;8.90;99.90;;;;;;6191746;22;20023;-81
2022/02/08 07:58:29;;;;;;;14.45;3.67;;;8.90;99.90;;;;;;6215788;22;20018;-81
2022/02/08 08:00:55;;;;;;;17.02;4.22;;;8.90;99.90;;;;;;6191075;22;20073;-81
2022/02/08 08:03:23;;;;;;;18.83;3.92;;;8.90;99.90;;;;;;6215456;22;20078;-81
2022/02/08 08:05:52;;;;;;;17.92;4.47;;;9.00;99.90;;;;;;6241366;22;20070;-82
2022/02/08 08:08:18;;;;;;;19.45;4.03;;;9.00;99.90;;;;;;6215232;22;20207;-82
2022/02/08 08:10:46;;;;;;;15.80;3.45;;;8.90;99.90;;;;;;6215745;22;20452;-82
2022/02/08 08:13:14;;;;;;;20.90;4.07;;;8.90;99.90;;;;;;6215913;22;20336;-80
2022/02/08 08:15:51;;;;;;;15.32;3.17;;;9.00;99.90;;;;;;6167215;22;20027;-80
2022/02/08 08:20:58;;;;;;;16.83;4.35;;;9.00;99.90;;;;;;6218483;22;20382;-80
2022/02/08 08:23:33;;;;;;;14.25;3.38;;;9.00;99.90;;;;;;6166281;22;20498;-81
2022/02/08 08:25:59;;;;;;;16.08;3.40;;;9.00;99.90;;;;;;6242017;22;20020;-79
2022/02/08 08:28:30;;;;;;;19.58;4.10;;;9.00;99.90;;;;;;6191338;22;20015;-78
2022/02/08 08:30:56;;;;;;;21.13;4.05;;;9.00;99.90;;;;;;6168232;22;20399;-81
2022/02/08 08:33:22;;;;;;;15.85;3.58;;;9.00;99.90;;;;;;6191127;22;20030;-82
2022/02/08 08:35:48;;;;;;;18.27;3.90;;;9.10;99.90;;;;;;6242435;22;20069;-82
2022/02/08 08:38:17;;;;;;;14.57;3.35;;;9.10;99.90;;;;;;6216740;22;20016;-82
2022/02/08 08:40:57;;;;;;;17.85;3.95;;;9.10;99.90;;;;;;6193043;22;20028;-81
2022/02/08 08:43:45;;;;;;;19.75;3.60;;;9.10;99.90;;;;;;6217515;22;20024;-81
2022/02/08 08:51:51;;;;;;;17.00;4.35;;;9.10;99.90;;;;;;6218813;22;20432;-87
2022/02/08 08:54:18;;;;;;;16.77;4.05;;;9.10;99.90;;;;;;6216609;22;20095;-88
2022/02/08 08:56:45;;;;;;;15.45;3.15;;;9.10;99.90;;;;;;6192400;22;20016;-87
2022/02/08 08:59:14;;;;;;;13.57;2.92;;;9.10;99.90;;;;;;6241452;22;20024;-86
2022/02/08 09:01:40;;;;;;;14.98;3.80;;;9.20;99.90;;;;;;6216261;22;20029;-85
2022/02/08 09:04:07;;;;;;;16.85;3.42;;;9.20;99.90;;;;;;6215798;22;20020;-87
2022/02/08 09:06:37;;;;;;;18.35;3.60;;;9.20;99.90;;;;;;6191500;22;20034;-84
2022/02/08 09:09:08;;;;;;;15.93;3.05;;;9.30;99.90;;;;;;6216855;22;20082;-82
2022/02/08 09:11:55;;;;;;;13.40;3.05;;;9.30;99.90;;;;;;6240026;22;20348;-81
2022/02/08 09:14:37;;;;;;;13.15;3.20;;;9.40;99.90;;;;;;6240408;22;20015;-77
2022/02/08 09:25:28;;;;;;;17.30;4.20;;;9.50;99.90;;;;;;6216462;22;20478;-81
2022/02/08 09:28:09;;;;;;;19.92;4.65;;;9.50;99.90;;;;;;6242858;22;20051;-81
2022/02/08 09:30:42;;;;;;;19.92;4.55;;;9.50;99.90;;;;;;6216963;22;20054;-82
2022/02/08 09:33:09;;;;;;;15.82;4.35;;;9.50;99.90;;;;;;6193731;22;20016;-81
2022/02/08 09:35:36;;;;;;;14.27;4.65;;;9.60;99.90;;;;;;6241515;22;20035;-81
2022/02/08 09:38:02;;;;;;;15.95;3.53;;;9.60;99.90;;;;;;6189735;22;20020;-81
2022/02/08 09:40:30;;;;;;;15.73;3.70;;;9.60;99.90;;;;;;6214973;22;20027;-81
2022/02/08 09:42:58;;;;;;;14.82;3.85;;;9.70;99.90;;;;;;6215266;22;20027;-81
2022/02/08 09:45:24;;;;;;;13.63;3.20;;;9.70;99.90;;;;;;6191723;22;20077;-79
2022/02/08 09:47:59;;;;;;;16.33;3.80;;;9.70;99.90;;;;;;6215403;22;20020;-81
2022/02/08 09:50:28;;;;;;;11.80;3.33;;;9.80;99.90;;;;;;6214782;22;20015;-82
2022/02/08 09:53:02;;;;;;;17.35;3.38;;;9.80;99.90;;;;;;6215255;22;20012;-81
2022/02/08 09:55:40;;;;;;;11.57;2.67;;;9.90;99.90;;;;;;6215372;22;20024;-81
2022/02/08 09:58:08;;;;;;;16.85;3.00;;;9.90;99.90;;;;;;6216234;22;20012;-82
2022/02/08 10:00:36;;;;;;;14.43;2.90;;;9.90;99.90;;;;;;6218650;22;20348;-82
2022/02/08 10:03:16;;;;;;;15.13;3.42;;;9.90;99.90;;;;;;6218629;22;20016;-81
2022/02/08 10:05:49;;;;;;;14.23;3.50;;;9.90;99.90;;;;;;6219969;22;20437;-81
2022/02/08 10:08:16;;;;;;;15.00;2.83;;;9.90;99.90;;;;;;6244770;22;20325;-81
2022/02/08 10:10:45;;;;;;;14.32;2.85;;;9.90;99.90;;;;;;6218385;22;20069;-82
2022/02/08 10:13:45;;;;;;;14.68;2.65;;;10.00;99.90;;;;;;6217868;22;20016;-82
2022/02/08 10:19:48;;;;;;;13.10;2.97;;;10.00;99.90;;;;;;6243803;22;20086;-82
2022/02/08 10:22:08;;;;;;;13.70;2.88;;;10.10;99.90;;;;;;6224877;22;20058;-81
2022/02/08 10:24:37;;;;;;;14.57;3.33;;;10.10;99.90;;;;;;6192962;22;20387;-80
2022/02/08 10:27:27;;;;;;;10.05;2.45;;;10.10;99.90;;;;;;6219040;22;20530;-82
2022/02/08 10:37:38;;;;;;;14.98;2.90;;;10.20;99.90;;;;;;6242137;22;20023;-83
2022/02/08 10:38:14;;;;;;;11.70;2.72;;;10.20;99.90;;;;;;6239055;23;20047;-83
2022/02/08 10:40:41;;;;;;;11.65;2.58;;;10.20;99.90;;;;;;6213238;23;20016;-81
2022/02/08 10:43:09;;;;;;;11.50;3.40;;;10.20;99.90;;;;;;6212521;23;20353;-82
2022/02/08 10:45:38;;;;;;;11.80;2.65;;;10.30;99.90;;;;;;6237709;23;20017;-87
2022/02/08 10:48:05;;;;;;;10.65;2.15;;;10.30;99.90;;;;;;6213675;23;20337;-81
2022/02/08 10:50:35;;;;;;;9.02;2.35;;;10.30;99.90;;;;;;6212320;23;20376;-83
2022/02/08 10:53:04;;;;;;;15.70;2.78;;;10.30;99.90;;;;;;6236446;23;20017;-81
2022/02/08 10:58:14;;;;;;;16.05;2.95;;;10.20;99.90;;;;;;6237902;23;20020;-82
2022/02/08 11:00:49;;;;;;;15.43;3.40;;;10.20;99.90;;;;;;6212696;23;20016;-82
2022/02/08 11:03:24;;;;;;;9.93;2.85;;;10.30;99.90;;;;;;6213125;23;20047;-81
2022/02/08 11:06:07;;;;;;;12.18;2.60;;;10.30;99.90;;;;;;6211342;23;20243;-81
2022/02/08 11:16:47;;;;;;;13.65;2.65;;;10.30;99.90;;;;;;6239020;23;20024;-81
2022/02/08 11:19:26;;;;;;;11.85;2.97;;;10.40;99.90;;;;;;6211663;23;20106;-79
2022/02/08 11:22:00;;;;;;;11.97;3.43;;;10.40;99.90;;;;;;6206253;23;20024;-82
2022/02/08 11:27:18;;;;;;;12.65;3.05;;;10.30;99.90;;;;;;6238498;23;20051;-83
2022/02/08 11:30:05;;;;;;;12.90;3.30;;;10.40;99.90;;;;;;6237045;23;20048;-84
2022/02/08 11:33:04;;;;;;;10.02;3.30;;;10.40;99.90;;;;;;6233469;23;20395;-82
2022/02/08 11:47:00;;;;;;;14.40;3.40;;;10.30;99.90;;;;;;6190821;23;20031;-78
2022/02/08 11:50:37;;;;;;;21.40;4.50;;;10.40;99.90;;;;;;6213607;23;20471;-81
2022/02/08 12:00:18;;;;;;;12.88;2.80;;;10.40;99.90;;;;;;6238624;23;20021;-82
2022/02/08 12:03:17;;;;;;;15.15;3.10;;;10.30;99.90;;;;;;6191836;23;20058;-82
2022/02/08 12:06:10;;;;;;;12.77;2.70;;;10.40;99.90;;;;;;6215097;23;20074;-82
2022/02/08 12:08:50;;;;;;;14.73;3.22;;;10.40;99.90;;;;;;6212692;23;20035;-81
2022/02/08 12:11:31;;;;;;;12.20;2.97;;;10.40;99.90;;;;;;6211750;23;20063;-82
2022/02/08 12:29:29;;;;;;;12.90;2.83;;;10.50;99.90;;;;;;6237612;23;20211;-83
2022/02/08 13:04:47;;;;;;;13.40;2.83;;;10.70;99.90;;;;;;6235513;23;20024;-83
2022/02/08 13:17:30;;;;;;;12.48;2.40;;;10.60;99.90;;;;;;6179486;23;20024;-82
2022/02/08 13:19:36;;;;;;;16.85;2.58;;;10.60;99.90;;;;;;6179391;23;20020;-82
2022/02/08 14:03:35;;;;;;;12.48;3.47;;;10.50;99.90;;;;;;6218465;22;20341;-82
2022/02/08 15:10:04;;;;;;;14.93;2.95;;;10.40;99.90;;;;;;6220826;22;20333;-81
2022/02/08 15:12:34;;;;;;;13.02;2.88;;;10.40;99.90;;;;;;6192202;22;20051;-82
2022/02/08 15:15:10;;;;;;;15.82;2.80;;;10.40;99.90;;;;;;6219046;22;20019;-83
2022/02/08 15:17:36;;;;;;;13.45;2.53;;;10.30;99.90;;;;;;6194797;22;20020;-82
2022/02/08 15:20:04;;;;;;;13.25;2.38;;;10.30;99.90;;;;;;6218371;22;20015;-81
2022/02/08 15:22:30;;;;;;;14.02;2.63;;;10.30;99.90;;;;;;6218802;22;20015;-81
2022/02/08 15:24:58;;;;;;;15.80;3.30;;;10.30;99.90;;;;;;6192582;22;20066;-82
2022/02/08 15:27:27;;;;;;;15.55;3.22;;;10.30;99.90;;;;;;6193800;22;20452;-81
2022/02/08 15:29:55;;;;;;;15.23;2.97;;;10.30;99.90;;;;;;6193849;22;20363;-81
2022/02/08 15:32:22;;;;;;;17.75;2.78;;;10.30;99.90;;;;;;6217422;22;20486;-82
2022/02/08 15:34:48;;;;;;;17.58;3.00;;;10.30;99.90;;;;;;6218602;22;20023;-81
2022/02/08 15:37:14;;;;;;;13.65;3.35;;;10.20;99.90;;;;;;6217777;22;20024;-82
2022/02/08 15:39:41;;;;;;;14.80;3.05;;;10.20;99.90;;;;;;6217077;22;20022;-82
2022/02/08 15:42:07;;;;;;;12.25;2.40;;;10.30;99.90;;;;;;6167149;22;20077;-82
2022/02/08 15:44:34;;;;;;;15.18;3.10;;;10.20;99.90;;;;;;6191396;22;20019;-82
2022/02/08 15:47:04;;;;;;;14.38;3.65;;;10.30;99.90;;;;;;6215675;22;20019;-82
2022/02/08 15:49:32;;;;;;;16.23;3.00;;;10.20;99.90;;;;;;6194501;22;20011;-82
2022/02/08 15:52:13;;;;;;;13.63;2.72;;;10.20;99.90;;;;;;6242898;22;20069;-82
2022/02/08 15:54:44;;;;;;;11.95;2.95;;;10.20;99.90;;;;;;6174364;22;20024;-81
2022/02/08 16:05:38;;;;;;;12.63;2.75;;;10.10;99.90;;;;;;6141864;22;20029;-82
2022/02/08 16:08:13;;;;;;;13.02;3.17;;;10.10;99.90;;;;;;6203494;22;20026;-83
2022/02/08 16:10:54;;;;;;;17.00;3.42;;;10.10;99.90;;;;;;6242722;22;20016;-82
2022/02/08 16:18:44;;;;;;;15.52;3.63;;;10.00;99.90;;;;;;6221375;22;20069;-83
2022/02/08 16:21:41;;;;;;;15.10;3.58;;;10.00;99.90;;;;;;6196520;22;20101;-83
2022/02/08 16:59:32;;;;;;;15.00;4.78;;;9.90;99.90;;;;;;6216299;22;20275;-82
2022/02/08 17:02:01;;;;;;;14.32;4.55;;;9.90;99.90;;;;;;6215199;22;20046;-82
2022/02/08 17:04:30;;;;;;;16.42;5.00;;;9.90;99.90;;;;;;6214820;22;20023;-83
2022/02/08 17:06:56;;;;;;;13.55;3.80;;;9.90;99.90;;;;;;6214912;22;20057;-81
2022/02/08 17:09:39;;;;;;;17.13;4.00;;;9.90;99.90;;;;;;6214476;22;20023;-82
2022/02/08 17:12:15;;;;;;;11.65;3.70;;;9.90;99.90;;;;;;6219451;22;20065;-81
2022/02/08 17:17:48;;;;;;;15.75;3.60;;;10.00;99.90;;;;;;6218459;22;20034;-82
2022/02/08 17:49:55;;;;;;;14.40;2.85;;;9.70;99.90;;;;;;6187577;22;20024;-81
2022/02/08 17:52:21;;;;;;;12.00;3.20;;;9.70;99.90;;;;;;6212092;22;20065;-82
2022/02/08 17:54:47;;;;;;;17.00;3.50;;;9.60;99.90;;;;;;6210214;22;20211;-82
2022/02/08 17:57:13;;;;;;;16.20;3.58;;;9.60;99.90;;;;;;6185733;22;20388;-82
2022/02/08 17:59:40;;;;;;;12.85;2.83;;;9.60;99.90;;;;;;6184914;22;20023;-82
2022/02/08 18:02:06;;;;;;;12.77;2.90;;;9.50;99.90;;;;;;6212696;22;20015;-82
2022/02/08 18:04:32;;;;;;;12.00;2.92;;;9.60;99.90;;;;;;6212502;22;20098;-83
2022/02/08 18:06:59;;;;;;;12.45;3.08;;;9.60;99.90;;;;;;6212785;22;20464;-82
2022/02/08 18:09:27;;;;;;;15.13;3.38;;;9.60;99.90;;;;;;6188338;22;20015;-83
2022/02/08 18:11:59;;;;;;;11.93;3.33;;;9.60;99.90;;;;;;6212521;22;20024;-82
2022/02/08 18:14:27;;;;;;;10.02;2.63;;;9.60;99.90;;;;;;6212693;22;20094;-82
2022/02/08 18:17:06;;;;;;;13.57;2.58;;;9.70;99.90;;;;;;6238402;22;20427;-83
2022/02/08 18:19:37;;;;;;;9.25;2.70;;;9.70;99.90;;;;;;6193126;22;20023;-82
2022/02/08 18:57:09;;;;;;;13.52;2.17;;;9.90;99.90;;;;;;6192440;22;20185;-81
2022/02/08 19:16:29;;;;;;;10.60;2.78;;;9.80;99.90;;;;;;6219722;22;20023;-82
2022/02/08 19:19:22;;;;;;;8.00;2.80;;;9.80;99.90;;;;;;6217198;22;20095;-83
2022/02/08 19:21:55;;;;;;;12.98;2.63;;;9.80;99.90;;;;;;6218010;22;20019;-83
2022/02/08 19:24:22;;;;;;;11.80;4.07;;;9.70;99.90;;;;;;6167797;22;20097;-81
2022/02/08 19:26:58;;;;;;;11.88;3.25;;;9.70;99.90;;;;;;6192558;22;20024;-82
2022/02/08 19:29:26;;;;;;;11.07;3.15;;;9.70;99.90;;;;;;6217053;22;20039;-81
2022/02/08 19:31:53;;;;;;;10.35;3.55;;;9.60;99.90;;;;;;6216374;22;20115;-82
2022/02/08 19:34:21;;;;;;;12.23;3.67;;;9.60;99.90;;;;;;6239801;22;20058;-82
2022/02/08 19:36:48;;;;;;;15.63;4.20;;;9.50;99.90;;;;;;6216318;22;20016;-81
2022/02/08 19:39:18;;;;;;;9.55;4.38;;;9.40;99.90;;;;;;6218971;22;20019;-81
2022/02/08 19:41:44;;;;;;;11.98;4.88;;;9.50;99.90;;;;;;6217371;22;20024;-82
2022/02/08 19:44:10;;;;;;;14.73;5.38;;;9.40;99.90;;;;;;6218140;22;20190;-83
2022/02/08 19:46:37;;;;;;;18.88;6.65;;;9.30;99.90;;;;;;6189992;22;20065;-82
2022/02/08 19:49:05;;;;;;;17.42;7.25;;;9.30;99.90;;;;;;6213188;22;20149;-82
2022/02/08 19:51:31;;;;;;;17.27;8.13;;;9.30;99.90;;;;;;6188756;22;20019;-82
2022/02/08 19:53:58;;;;;;;18.85;9.52;;;9.20;99.90;;;;;;6167964;22;20306;-81
2022/02/08 19:56:38;;;;;;;19.70;10.15;;;9.20;99.90;;;;;;6190412;22;20019;-82
2022/02/08 19:59:07;;;;;;;20.48;11.50;;;9.20;99.90;;;;;;6220324;22;20361;-82
2022/02/08 20:01:35;;;;;;;21.15;12.07;;;9.10;99.90;;;;;;6218761;22;20019;-82
2022/02/08 20:04:17;;;;;;;22.70;13.05;;;9.10;99.90;;;;;;6168813;22;20077;-81
2022/02/08 20:06:44;;;;;;;21.30;12.98;;;9.10;99.90;;;;;;6219034;22;20098;-82
2022/02/08 20:09:10;;;;;;;20.00;13.48;;;9.10;99.90;;;;;;6193543;22;20026;-81
2022/02/08 20:11:36;;;;;;;21.45;14.10;;;9.10;99.90;;;;;;6243108;22;20020;-81
2022/02/08 20:14:03;;;;;;;23.92;15.18;;;9.10;99.90;;;;;;6194149;22;20457;-82
2022/02/08 20:16:31;;;;;;;21.52;15.40;;;9.10;99.90;;;;;;6218354;22;20023;-81
2022/02/08 20:19:00;;;;;;;25.48;15.65;;;9.00;99.90;;;;;;6193426;22;20067;-82
2022/02/08 20:21:29;;;;;;;23.55;17.20;;;9.10;99.90;;;;;;6242611;22;20019;-81
2022/02/08 20:23:58;;;;;;;29.35;18.67;;;9.00;99.90;;;;;;6216774;22;20102;-82
2022/02/08 20:26:29;;;;;;;27.90;18.75;;;9.00;99.90;;;;;;6192022;22;20019;-80
2022/02/08 20:29:01;;;;;;;27.98;17.83;;;9.00;99.90;;;;;;6193468;22;20092;-82
2022/02/08 20:31:30;;;;;;;24.80;20.15;;;9.00;99.90;;;;;;6217360;22;20020;-82
2022/02/08 20:33:56;;;;;;;24.00;19.25;;;8.90;99.90;;;;;;6243127;22;20059;-81